sensor_id;sensor_type;location;lat;lon;timestamp;temperature;humidity
51841;DHT22;37888;53.246;6.658;2023-11-18T00:01:48;2.70;99.90
51841;DHT22;37888;53.246;6.658;2023-11-18T00:04:13;2.20;99.90
51841;DHT22;37888;53.246;6.658;2023-11-18T00:06:41;2.70;99.90
51841;DHT22;37888;53.246;6.658;2023-11-18T00:09:10;1.70;99.90
51841;DHT22;37888;53.246;6.658;2023-11-18T00:11:40;2.30;99.90
51841;DHT22;37888;53.246;6.658;2023-11-18T00:14:06;1.80;99.90
51841;DHT22;37888;53.246;6.658;2023-11-18T00:16:31;1.90;99.90
51841;DHT22;37888;53.246;6.658;2023-11-18T00:18:57;2.00;99.90
51841;DHT22;37888;53.246;6.658;2023-11-18T00:21:24;2.40;99.90
51841;DHT22;37888;53.246;6.658;2023-11-18T00:23:50;2.00;99.90
51841;DHT22;37888;53.246;6.658;2023-11-18T00:26:16;2.00;99.90
51841;DHT22;37888;53.246;6.658;2023-11-18T00:28:41;2.10;99.90
51841;DHT22;37888;53.246;6.658;2023-11-18T00:31:07;2.90;99.90
51841;DHT22;37888;53.246;6.658;2023-11-18T00:33:32;2.20;99.90
51841;DHT22;37888;53.246;6.658;2023-11-18T00:35:58;2.90;99.90
51841;DHT22;37888;53.246;6.658;2023-11-18T00:38:26;2.70;99.90
51841;DHT22;37888;53.246;6.658;2023-11-18T00:40:51;1.90;99.90
51841;DHT22;37888;53.246;6.658;2023-11-18T00:43:17;1.90;99.90
51841;DHT22;37888;53.246;6.658;2023-11-18T00:45:43;1.80;99.90
51841;DHT22;37888;53.246;6.658;2023-11-18T00:48:09;1.70;99.90
51841;DHT22;37888;53.246;6.658;2023-11-18T00:50:35;1.90;99.90
51841;DHT22;37888;53.246;6.658;2023-11-18T00:53:00;2.30;99.90
51841;DHT22;37888;53.246;6.658;2023-11-18T00:55:26;1.60;99.90
51841;DHT22;37888;53.246;6.658;2023-11-18T00:57:52;2.50;99.90
51841;DHT22;37888;53.246;6.658;2023-11-18T01:00:18;1.90;99.90
51841;DHT22;37888;53.246;6.658;2023-11-18T01:02:52;1.50;99.90
51841;DHT22;37888;53.246;6.658;2023-11-18T01:05:18;2.50;99.90
51841;DHT22;37888;53.246;6.658;2023-11-18T01:07:44;1.40;99.90
51841;DHT22;37888;53.246;6.658;2023-11-18T01:10:10;1.40;99.90
51841;DHT22;37888;53.246;6.658;2023-11-18T01:12:36;1.30;99.90
51841;DHT22;37888;53.246;6.658;2023-11-18T01:15:02;1.30;99.90
51841;DHT22;37888;53.246;6.658;2023-11-18T01:17:28;1.20;99.90
51841;DHT22;37888;53.246;6.658;2023-11-18T01:19:54;1.20;99.90
51841;DHT22;37888;53.246;6.658;2023-11-18T01:22:20;1.20;99.90
51841;DHT22;37888;53.246;6.658;2023-11-18T01:24:46;1.20;99.90
51841;DHT22;37888;53.246;6.658;2023-11-18T01:27:12;1.30;99.90
51841;DHT22;37888;53.246;6.658;2023-11-18T01:29:38;2.00;99.90
51841;DHT22;37888;53.246;6.658;2023-11-18T01:32:05;1.10;99.90
51841;DHT22;37888;53.246;6.658;2023-11-18T01:34:37;1.10;99.90
51841;DHT22;37888;53.246;6.658;2023-11-18T01:37:04;1.10;99.90
51841;DHT22;37888;53.246;6.658;2023-11-18T01:39:33;1.00;99.90
51841;DHT22;37888;53.246;6.658;2023-11-18T01:41:58;1.00;99.90
51841;DHT22;37888;53.246;6.658;2023-11-18T01:44:25;0.90;99.90
51841;DHT22;37888;53.246;6.658;2023-11-18T01:46:50;1.70;99.90
51841;DHT22;37888;53.246;6.658;2023-11-18T01:49:16;1.40;99.90
51841;DHT22;37888;53.246;6.658;2023-11-18T01:51:43;0.80;99.90
51841;DHT22;37888;53.246;6.658;2023-11-18T01:54:10;0.90;99.90
51841;DHT22;37888;53.246;6.658;2023-11-18T01:56:44;0.80;99.90
51841;DHT22;37888;53.246;6.658;2023-11-18T01:59:11;0.80;99.90
51841;DHT22;37888;53.246;6.658;2023-11-18T02:01:52;1.90;99.90
51841;DHT22;37888;53.246;6.658;2023-11-18T02:04:19;0.80;99.90
51841;DHT22;37888;53.246;6.658;2023-11-18T02:06:45;0.90;99.90
51841;DHT22;37888;53.246;6.658;2023-11-18T02:09:14;0.90;99.90
51841;DHT22;37888;53.246;6.658;2023-11-18T02:11:41;1.50;99.90
51841;DHT22;37888;53.246;6.658;2023-11-18T02:14:12;1.20;99.90
51841;DHT22;37888;53.246;6.658;2023-11-18T02:16:39;1.40;99.90
51841;DHT22;37888;53.246;6.658;2023-11-18T02:19:08;1.30;99.90
51841;DHT22;37888;53.246;6.658;2023-11-18T02:21:35;1.10;99.90
51841;DHT22;37888;53.246;6.658;2023-11-18T02:24:01;2.20;99.90
51841;DHT22;37888;53.246;6.658;2023-11-18T02:26:27;1.20;99.90
51841;DHT22;37888;53.246;6.658;2023-11-18T02:28:52;1.30;99.90
51841;DHT22;37888;53.246;6.658;2023-11-18T02:31:30;2.10;99.90
51841;DHT22;37888;53.246;6.658;2023-11-18T02:34:00;1.50;99.90
51841;DHT22;37888;53.246;6.658;2023-11-18T02:36:36;0.60;99.90
51841;DHT22;37888;53.246;6.658;2023-11-18T02:39:05;1.70;99.90
51841;DHT22;37888;53.246;6.658;2023-11-18T02:41:36;2.20;99.90
51841;DHT22;37888;53.246;6.658;2023-11-18T02:44:04;1.70;99.90
51841;DHT22;37888;53.246;6.658;2023-11-18T02:46:38;1.80;99.90
51841;DHT22;37888;53.246;6.658;2023-11-18T02:49:04;2.10;99.90
51841;DHT22;37888;53.246;6.658;2023-11-18T02:51:29;2.60;99.90
51841;DHT22;37888;53.246;6.658;2023-11-18T02:54:05;2.00;99.90
51841;DHT22;37888;53.246;6.658;2023-11-18T02:56:32;1.80;99.90
51841;DHT22;37888;53.246;6.658;2023-11-18T02:58:57;2.40;99.90
51841;DHT22;37888;53.246;6.658;2023-11-18T03:01:23;1.80;99.90
51841;DHT22;37888;53.246;6.658;2023-11-18T03:03:50;2.40;99.90
51841;DHT22;37888;53.246;6.658;2023-11-18T03:06:16;1.80;99.90
51841;DHT22;37888;53.246;6.658;2023-11-18T03:08:42;1.80;99.90
51841;DHT22;37888;53.246;6.658;2023-11-18T03:11:07;3.10;99.90
51841;DHT22;37888;53.246;6.658;2023-11-18T03:13:34;2.90;99.90
51841;DHT22;37888;53.246;6.658;2023-11-18T03:16:00;2.00;99.90
51841;DHT22;37888;53.246;6.658;2023-11-18T03:18:26;2.10;99.90
51841;DHT22;37888;53.246;6.658;2023-11-18T03:20:51;2.10;99.90
51841;DHT22;37888;53.246;6.658;2023-11-18T03:23:17;2.20;99.90
51841;DHT22;37888;53.246;6.658;2023-11-18T03:25:44;2.20;99.90
51841;DHT22;37888;53.246;6.658;2023-11-18T03:28:10;3.50;99.90
51841;DHT22;37888;53.246;6.658;2023-11-18T03:30:36;2.20;99.90
51841;DHT22;37888;53.246;6.658;2023-11-18T03:33:03;2.80;99.90
51841;DHT22;37888;53.246;6.658;2023-11-18T03:35:29;2.20;99.90
51841;DHT22;37888;53.246;6.658;2023-11-18T03:37:55;1.00;99.90
51841;DHT22;37888;53.246;6.658;2023-11-18T03:40:21;2.20;99.90
51841;DHT22;37888;53.246;6.658;2023-11-18T03:42:46;2.30;99.90
51841;DHT22;37888;53.246;6.658;2023-11-18T03:45:12;2.20;99.90
51841;DHT22;37888;53.246;6.658;2023-11-18T03:47:40;2.20;99.90
51841;DHT22;37888;53.246;6.658;2023-11-18T03:50:06;2.80;99.90
51841;DHT22;37888;53.246;6.658;2023-11-18T03:52:35;2.20;99.90
51841;DHT22;37888;53.246;6.658;2023-11-18T03:55:02;2.20;99.90
51841;DHT22;37888;53.246;6.658;2023-11-18T03:57:28;3.20;99.90
51841;DHT22;37888;53.246;6.658;2023-11-18T03:59:53;2.20;99.90
51841;DHT22;37888;53.246;6.658;2023-11-18T04:02:19;2.30;99.90
51841;DHT22;37888;53.246;6.658;2023-11-18T04:04:44;2.20;99.90
51841;DHT22;37888;53.246;6.658;2023-11-18T04:07:10;3.20;99.90
51841;DHT22;37888;53.246;6.658;2023-11-18T04:09:36;2.50;99.90
51841;DHT22;37888;53.246;6.658;2023-11-18T04:12:01;2.20;99.90
51841;DHT22;37888;53.246;6.658;2023-11-18T04:14:27;2.20;99.90
51841;DHT22;37888;53.246;6.658;2023-11-18T04:16:52;2.70;99.90
51841;DHT22;37888;53.246;6.658;2023-11-18T04:19:18;2.30;99.90
51841;DHT22;37888;53.246;6.658;2023-11-18T04:21:44;2.80;99.90
51841;DHT22;37888;53.246;6.658;2023-11-18T04:24:13;2.20;99.90
51841;DHT22;37888;53.246;6.658;2023-11-18T04:26:39;2.20;99.90
51841;DHT22;37888;53.246;6.658;2023-11-18T04:29:04;2.20;99.90
51841;DHT22;37888;53.246;6.658;2023-11-18T04:31:30;2.40;99.90
51841;DHT22;37888;53.246;6.658;2023-11-18T04:33:56;2.20;99.90
51841;DHT22;37888;53.246;6.658;2023-11-18T04:36:21;2.20;99.90
51841;DHT22;37888;53.246;6.658;2023-11-18T04:38:47;2.20;99.90
51841;DHT22;37888;53.246;6.658;2023-11-18T04:41:13;3.80;99.90
51841;DHT22;37888;53.246;6.658;2023-11-18T04:43:38;2.20;99.90
51841;DHT22;37888;53.246;6.658;2023-11-18T04:46:07;3.30;99.90
51841;DHT22;37888;53.246;6.658;2023-11-18T04:48:33;2.20;99.90
51841;DHT22;37888;53.246;6.658;2023-11-18T04:50:59;2.30;99.90
51841;DHT22;37888;53.246;6.658;2023-11-18T04:53:25;2.30;99.90
51841;DHT22;37888;53.246;6.658;2023-11-18T04:55:51;2.30;99.90
51841;DHT22;37888;53.246;6.658;2023-11-18T04:58:16;2.30;99.90
51841;DHT22;37888;53.246;6.658;2023-11-18T05:00:42;2.90;99.90
51841;DHT22;37888;53.246;6.658;2023-11-18T05:03:09;2.30;99.90
51841;DHT22;37888;53.246;6.658;2023-11-18T05:05:38;3.10;99.90
51841;DHT22;37888;53.246;6.658;2023-11-18T05:08:07;2.30;99.90
51841;DHT22;37888;53.246;6.658;2023-11-18T05:10:33;2.40;99.90
51841;DHT22;37888;53.246;6.658;2023-11-18T05:12:59;2.60;99.90
51841;DHT22;37888;53.246;6.658;2023-11-18T05:15:25;2.30;99.90
51841;DHT22;37888;53.246;6.658;2023-11-18T05:17:54;2.80;99.90
51841;DHT22;37888;53.246;6.658;2023-11-18T05:20:20;2.30;99.90
51841;DHT22;37888;53.246;6.658;2023-11-18T05:22:46;2.30;99.90
51841;DHT22;37888;53.246;6.658;2023-11-18T05:25:11;3.10;99.90
51841;DHT22;37888;53.246;6.658;2023-11-18T05:27:37;2.30;99.90
51841;DHT22;37888;53.246;6.658;2023-11-18T05:30:06;2.30;99.90
51841;DHT22;37888;53.246;6.658;2023-11-18T05:32:31;2.30;99.90
51841;DHT22;37888;53.246;6.658;2023-11-18T05:34:58;2.70;99.90
51841;DHT22;37888;53.246;6.658;2023-11-18T05:37:24;2.40;99.90
51841;DHT22;37888;53.246;6.658;2023-11-18T05:39:50;2.30;99.90
51841;DHT22;37888;53.246;6.658;2023-11-18T05:42:27;2.30;99.90
51841;DHT22;37888;53.246;6.658;2023-11-18T05:44:53;2.40;99.90
51841;DHT22;37888;53.246;6.658;2023-11-18T05:47:27;2.40;99.90
51841;DHT22;37888;53.246;6.658;2023-11-18T05:49:53;2.50;99.90
51841;DHT22;37888;53.246;6.658;2023-11-18T05:52:19;3.60;99.90
51841;DHT22;37888;53.246;6.658;2023-11-18T05:54:46;2.50;99.90
51841;DHT22;37888;53.246;6.658;2023-11-18T05:57:13;2.50;99.90
51841;DHT22;37888;53.246;6.658;2023-11-18T05:59:38;2.70;99.90
51841;DHT22;37888;53.246;6.658;2023-11-18T06:02:04;2.50;99.90
51841;DHT22;37888;53.246;6.658;2023-11-18T06:04:30;2.60;99.90
51841;DHT22;37888;53.246;6.658;2023-11-18T06:06:56;2.60;99.90
51841;DHT22;37888;53.246;6.658;2023-11-18T06:09:22;2.60;99.90
51841;DHT22;37888;53.246;6.658;2023-11-18T06:11:51;2.60;99.90
51841;DHT22;37888;53.246;6.658;2023-11-18T06:14:16;2.90;99.90
51841;DHT22;37888;53.246;6.658;2023-11-18T06:16:42;2.70;99.90
51841;DHT22;37888;53.246;6.658;2023-11-18T06:19:08;2.80;99.90
51841;DHT22;37888;53.246;6.658;2023-11-18T06:21:33;2.80;99.90
51841;DHT22;37888;53.246;6.658;2023-11-18T06:24:00;3.00;99.90
51841;DHT22;37888;53.246;6.658;2023-11-18T06:26:26;2.70;99.90
51841;DHT22;37888;53.246;6.658;2023-11-18T06:28:52;2.80;99.90
51841;DHT22;37888;53.246;6.658;2023-11-18T06:31:19;2.90;99.90
51841;DHT22;37888;53.246;6.658;2023-11-18T06:33:46;2.80;99.90
51841;DHT22;37888;53.246;6.658;2023-11-18T06:38:38;2.80;99.90
51841;DHT22;37888;53.246;6.658;2023-11-18T06:41:04;2.90;99.90
51841;DHT22;37888;53.246;6.658;2023-11-18T06:43:31;2.90;99.90
51841;DHT22;37888;53.246;6.658;2023-11-18T06:46:14;3.10;99.90
51841;DHT22;37888;53.246;6.658;2023-11-18T06:48:40;2.90;99.90
51841;DHT22;37888;53.246;6.658;2023-11-18T06:51:06;2.90;99.90
51841;DHT22;37888;53.246;6.658;2023-11-18T06:53:33;3.00;99.90
51841;DHT22;37888;53.246;6.658;2023-11-18T06:56:00;3.00;99.90
51841;DHT22;37888;53.246;6.658;2023-11-18T06:58:25;3.00;99.90
51841;DHT22;37888;53.246;6.658;2023-11-18T07:00:51;3.00;99.90
51841;DHT22;37888;53.246;6.658;2023-11-18T07:03:16;3.00;99.90
51841;DHT22;37888;53.246;6.658;2023-11-18T07:05:42;3.10;99.90
51841;DHT22;37888;53.246;6.658;2023-11-18T07:10:35;3.30;99.90
51841;DHT22;37888;53.246;6.658;2023-11-18T07:13:04;3.30;99.90
51841;DHT22;37888;53.246;6.658;2023-11-18T07:15:29;3.90;99.90
51841;DHT22;37888;53.246;6.658;2023-11-18T07:20:21;3.20;99.90
51841;DHT22;37888;53.246;6.658;2023-11-18T07:22:47;3.40;99.90
51841;DHT22;37888;53.246;6.658;2023-11-18T07:27:38;3.60;99.90
51841;DHT22;37888;53.246;6.658;2023-11-18T07:30:04;4.00;99.90
51841;DHT22;37888;53.246;6.658;2023-11-18T07:32:35;3.20;99.90
51841;DHT22;37888;53.246;6.658;2023-11-18T07:35:01;3.20;99.90
51841;DHT22;37888;53.246;6.658;2023-11-18T07:39:53;3.30;99.90
51841;DHT22;37888;53.246;6.658;2023-11-18T07:42:20;3.30;99.90
51841;DHT22;37888;53.246;6.658;2023-11-18T07:44:46;3.30;99.90
51841;DHT22;37888;53.246;6.658;2023-11-18T07:47:13;3.30;99.90
51841;DHT22;37888;53.246;6.658;2023-11-18T07:49:41;3.30;99.90
51841;DHT22;37888;53.246;6.658;2023-11-18T07:52:07;3.60;99.90
51841;DHT22;37888;53.246;6.658;2023-11-18T07:54:32;3.30;99.90
51841;DHT22;37888;53.246;6.658;2023-11-18T07:56:58;3.30;99.90
51841;DHT22;37888;53.246;6.658;2023-11-18T07:59:24;3.40;99.90
51841;DHT22;37888;53.246;6.658;2023-11-18T08:01:50;3.30;99.90
51841;DHT22;37888;53.246;6.658;2023-11-18T08:04:15;3.40;99.90
51841;DHT22;37888;53.246;6.658;2023-11-18T08:06:42;3.40;99.90
51841;DHT22;37888;53.246;6.658;2023-11-18T08:09:11;4.00;99.90
51841;DHT22;37888;53.246;6.658;2023-11-18T08:11:39;3.50;99.90
51841;DHT22;37888;53.246;6.658;2023-11-18T08:16:33;3.50;99.90
51841;DHT22;37888;53.246;6.658;2023-11-18T08:18:59;3.60;99.90
51841;DHT22;37888;53.246;6.658;2023-11-18T08:21:24;3.50;99.90
51841;DHT22;37888;53.246;6.658;2023-11-18T08:23:50;3.50;99.90
51841;DHT22;37888;53.246;6.658;2023-11-18T08:26:16;3.60;99.90
51841;DHT22;37888;53.246;6.658;2023-11-18T08:28:41;4.00;99.90
51841;DHT22;37888;53.246;6.658;2023-11-18T08:33:34;3.60;99.90
51841;DHT22;37888;53.246;6.658;2023-11-18T08:36:00;3.60;99.90
51841;DHT22;37888;53.246;6.658;2023-11-18T08:38:27;3.70;99.90
51841;DHT22;37888;53.246;6.658;2023-11-18T08:40:53;3.70;99.90
51841;DHT22;37888;53.246;6.658;2023-11-18T08:43:20;3.80;99.90
51841;DHT22;37888;53.246;6.658;2023-11-18T08:45:46;3.80;99.90
51841;DHT22;37888;53.246;6.658;2023-11-18T08:48:12;3.80;99.90
51841;DHT22;37888;53.246;6.658;2023-11-18T08:50:38;3.80;99.90
51841;DHT22;37888;53.246;6.658;2023-11-18T08:53:08;3.80;99.90
51841;DHT22;37888;53.246;6.658;2023-11-18T08:55:35;3.90;99.90
51841;DHT22;37888;53.246;6.658;2023-11-18T09:00:41;3.90;99.90
51841;DHT22;37888;53.246;6.658;2023-11-18T09:03:10;3.90;99.90
51841;DHT22;37888;53.246;6.658;2023-11-18T09:05:49;4.90;99.90
51841;DHT22;37888;53.246;6.658;2023-11-18T09:10:56;3.90;99.90
51841;DHT22;37888;53.246;6.658;2023-11-18T09:13:22;4.00;99.90
51841;DHT22;37888;53.246;6.658;2023-11-18T09:15:50;4.00;99.90
51841;DHT22;37888;53.246;6.658;2023-11-18T09:18:16;4.00;99.90
51841;DHT22;37888;53.246;6.658;2023-11-18T09:20:43;4.00;99.90
51841;DHT22;37888;53.246;6.658;2023-11-18T09:23:09;4.00;99.90
51841;DHT22;37888;53.246;6.658;2023-11-18T09:25:35;4.00;99.90
51841;DHT22;37888;53.246;6.658;2023-11-18T09:28:01;4.00;99.90
51841;DHT22;37888;53.246;6.658;2023-11-18T09:30:28;4.10;99.90
51841;DHT22;37888;53.246;6.658;2023-11-18T09:32:55;4.10;99.90
51841;DHT22;37888;53.246;6.658;2023-11-18T09:35:21;4.10;99.90
51841;DHT22;37888;53.246;6.658;2023-11-18T09:37:46;4.10;99.90
51841;DHT22;37888;53.246;6.658;2023-11-18T09:40:15;4.10;99.90
51841;DHT22;37888;53.246;6.658;2023-11-18T09:42:43;4.10;99.90
51841;DHT22;37888;53.246;6.658;2023-11-18T09:45:09;4.20;99.90
51841;DHT22;37888;53.246;6.658;2023-11-18T09:47:45;4.10;99.90
51841;DHT22;37888;53.246;6.658;2023-11-18T09:50:17;4.10;99.90
51841;DHT22;37888;53.246;6.658;2023-11-18T09:52:47;4.20;99.90
51841;DHT22;37888;53.246;6.658;2023-11-18T09:55:29;4.10;99.90
51841;DHT22;37888;53.246;6.658;2023-11-18T09:58:04;4.20;99.90
51841;DHT22;37888;53.246;6.658;2023-11-18T10:00:34;4.20;99.90
51841;DHT22;37888;53.246;6.658;2023-11-18T10:03:07;4.30;99.90
51841;DHT22;37888;53.246;6.658;2023-11-18T10:05:35;4.40;99.90
51841;DHT22;37888;53.246;6.658;2023-11-18T10:08:02;4.30;99.90
51841;DHT22;37888;53.246;6.658;2023-11-18T10:10:31;4.30;99.90
51841;DHT22;37888;53.246;6.658;2023-11-18T10:13:01;5.10;99.90
51841;DHT22;37888;53.246;6.658;2023-11-18T10:15:30;4.20;99.90
51841;DHT22;37888;53.246;6.658;2023-11-18T10:17:56;4.20;99.90
51841;DHT22;37888;53.246;6.658;2023-11-18T10:23:10;4.30;99.90
51841;DHT22;37888;53.246;6.658;2023-11-18T10:25:48;4.20;99.90
51841;DHT22;37888;53.246;6.658;2023-11-18T10:28:26;4.20;99.90
51841;DHT22;37888;53.246;6.658;2023-11-18T10:31:04;4.30;99.90
51841;DHT22;37888;53.246;6.658;2023-11-18T10:33:31;4.20;99.90
51841;DHT22;37888;53.246;6.658;2023-11-18T10:35:57;4.20;99.90
51841;DHT22;37888;53.246;6.658;2023-11-18T10:38:23;4.20;99.90
51841;DHT22;37888;53.246;6.658;2023-11-18T10:40:55;4.30;99.90
51841;DHT22;37888;53.246;6.658;2023-11-18T10:43:21;4.10;99.90
51841;DHT22;37888;53.246;6.658;2023-11-18T10:45:54;4.70;99.90
51841;DHT22;37888;53.246;6.658;2023-11-18T10:48:29;4.30;99.90
51841;DHT22;37888;53.246;6.658;2023-11-18T10:50:55;5.00;99.90
51841;DHT22;37888;53.246;6.658;2023-11-18T10:53:23;4.20;99.90
51841;DHT22;37888;53.246;6.658;2023-11-18T10:55:54;4.10;99.90
51841;DHT22;37888;53.246;6.658;2023-11-18T10:58:22;4.20;99.90
51841;DHT22;37888;53.246;6.658;2023-11-18T11:00:49;4.30;99.90
51841;DHT22;37888;53.246;6.658;2023-11-18T11:03:15;4.30;99.90
51841;DHT22;37888;53.246;6.658;2023-11-18T11:05:41;4.20;99.90
51841;DHT22;37888;53.246;6.658;2023-11-18T11:08:09;4.20;99.90
51841;DHT22;37888;53.246;6.658;2023-11-18T11:10:39;4.20;99.90
51841;DHT22;37888;53.246;6.658;2023-11-18T11:13:07;4.30;99.90
51841;DHT22;37888;53.246;6.658;2023-11-18T11:15:33;4.30;99.90
51841;DHT22;37888;53.246;6.658;2023-11-18T11:18:05;4.30;99.90
51841;DHT22;37888;53.246;6.658;2023-11-18T11:20:53;4.30;99.90
51841;DHT22;37888;53.246;6.658;2023-11-18T11:23:21;4.40;99.90
51841;DHT22;37888;53.246;6.658;2023-11-18T11:26:05;4.40;99.90
51841;DHT22;37888;53.246;6.658;2023-11-18T11:28:37;4.40;99.90
51841;DHT22;37888;53.246;6.658;2023-11-18T11:31:17;4.40;99.90
51841;DHT22;37888;53.246;6.658;2023-11-18T11:36:21;4.50;99.90
51841;DHT22;37888;53.246;6.658;2023-11-18T11:38:52;4.50;99.90
51841;DHT22;37888;53.246;6.658;2023-11-18T11:41:21;4.50;99.90
51841;DHT22;37888;53.246;6.658;2023-11-18T11:43:52;4.50;99.90
51841;DHT22;37888;53.246;6.658;2023-11-18T11:46:26;4.50;99.90
51841;DHT22;37888;53.246;6.658;2023-11-18T11:49:03;4.50;99.90
51841;DHT22;37888;53.246;6.658;2023-11-18T11:54:15;4.50;99.90
51841;DHT22;37888;53.246;6.658;2023-11-18T11:56:49;4.50;99.90
51841;DHT22;37888;53.246;6.658;2023-11-18T11:59:15;4.50;99.90
51841;DHT22;37888;53.246;6.658;2023-11-18T12:01:41;4.60;99.90
51841;DHT22;37888;53.246;6.658;2023-11-18T12:04:12;4.60;99.90
51841;DHT22;37888;53.246;6.658;2023-11-18T12:06:49;4.60;99.90
51841;DHT22;37888;53.246;6.658;2023-11-18T12:09:23;4.70;99.90
51841;DHT22;37888;53.246;6.658;2023-11-18T12:11:58;6.50;99.90
51841;DHT22;37888;53.246;6.658;2023-11-18T12:14:24;4.70;99.90
51841;DHT22;37888;53.246;6.658;2023-11-18T12:17:06;4.70;99.90
51841;DHT22;37888;53.246;6.658;2023-11-18T12:19:46;4.70;99.90
51841;DHT22;37888;53.246;6.658;2023-11-18T12:22:13;4.70;99.90
51841;DHT22;37888;53.246;6.658;2023-11-18T12:30:02;4.70;99.90
51841;DHT22;37888;53.246;6.658;2023-11-18T12:35:19;4.80;99.90
51841;DHT22;37888;53.246;6.658;2023-11-18T12:40:35;4.80;99.90
51841;DHT22;37888;53.246;6.658;2023-11-18T12:43:07;4.80;99.90
51841;DHT22;37888;53.246;6.658;2023-11-18T12:47:58;5.20;99.90
51841;DHT22;37888;53.246;6.658;2023-11-18T12:50:28;5.10;99.90
51841;DHT22;37888;53.246;6.658;2023-11-18T12:52:57;5.40;99.90
51841;DHT22;37888;53.246;6.658;2023-11-18T12:55:23;5.10;99.90
51841;DHT22;37888;53.246;6.658;2023-11-18T12:57:49;5.10;99.90
51841;DHT22;37888;53.246;6.658;2023-11-18T13:00:16;5.00;99.90
51841;DHT22;37888;53.246;6.658;2023-11-18T13:02:53;5.20;99.90
51841;DHT22;37888;53.246;6.658;2023-11-18T13:05:19;5.30;99.90
51841;DHT22;37888;53.246;6.658;2023-11-18T13:07:45;5.20;99.90
51841;DHT22;37888;53.246;6.658;2023-11-18T13:10:10;5.20;99.90
51841;DHT22;37888;53.246;6.658;2023-11-18T13:12:41;5.70;99.90
51841;DHT22;37888;53.246;6.658;2023-11-18T13:15:08;5.30;99.90
51841;DHT22;37888;53.246;6.658;2023-11-18T13:17:34;5.20;99.90
51841;DHT22;37888;53.246;6.658;2023-11-18T13:20:33;5.10;99.90
51841;DHT22;37888;53.246;6.658;2023-11-18T13:22:52;4.90;99.90
51841;DHT22;37888;53.246;6.658;2023-11-18T13:25:24;5.30;99.90
51841;DHT22;37888;53.246;6.658;2023-11-18T13:27:50;5.20;99.90
51841;DHT22;37888;53.246;6.658;2023-11-18T13:30:16;5.70;99.90
51841;DHT22;37888;53.246;6.658;2023-11-18T13:32:43;5.50;99.90
51841;DHT22;37888;53.246;6.658;2023-11-18T13:35:12;5.20;99.90
51841;DHT22;37888;53.246;6.658;2023-11-18T13:37:46;5.00;99.90
51841;DHT22;37888;53.246;6.658;2023-11-18T13:40:13;5.10;99.90
51841;DHT22;37888;53.246;6.658;2023-11-18T13:45:05;5.20;99.90
51841;DHT22;37888;53.246;6.658;2023-11-18T13:47:37;5.00;99.90
51841;DHT22;37888;53.246;6.658;2023-11-18T13:50:09;4.70;99.90
51841;DHT22;37888;53.246;6.658;2023-11-18T13:55:02;5.10;99.90
51841;DHT22;37888;53.246;6.658;2023-11-18T13:57:31;4.60;99.90
51841;DHT22;37888;53.246;6.658;2023-11-18T13:59:57;5.20;99.90
51841;DHT22;37888;53.246;6.658;2023-11-18T14:02:23;5.10;99.90
51841;DHT22;37888;53.246;6.658;2023-11-18T14:04:49;5.10;99.90
51841;DHT22;37888;53.246;6.658;2023-11-18T14:07:15;5.30;99.90
51841;DHT22;37888;53.246;6.658;2023-11-18T14:09:45;5.10;99.90
51841;DHT22;37888;53.246;6.658;2023-11-18T14:12:11;5.40;99.90
51841;DHT22;37888;53.246;6.658;2023-11-18T14:14:37;5.60;99.90
51841;DHT22;37888;53.246;6.658;2023-11-18T14:17:06;5.20;99.90
51841;DHT22;37888;53.246;6.658;2023-11-18T14:19:35;5.30;99.90
51841;DHT22;37888;53.246;6.658;2023-11-18T14:22:01;5.20;99.90
51841;DHT22;37888;53.246;6.658;2023-11-18T14:24:29;5.30;99.90
51841;DHT22;37888;53.246;6.658;2023-11-18T14:34:15;5.30;99.90
51841;DHT22;37888;53.246;6.658;2023-11-18T14:36:41;5.30;99.90
51841;DHT22;37888;53.246;6.658;2023-11-18T14:48:57;5.30;99.90
51841;DHT22;37888;53.246;6.658;2023-11-18T15:30:27;5.50;99.90
51841;DHT22;37888;53.246;6.658;2023-11-18T15:32:54;5.40;99.90
51841;DHT22;37888;53.246;6.658;2023-11-18T15:35:20;5.40;99.90
51841;DHT22;37888;53.246;6.658;2023-11-18T15:37:46;5.40;99.90
51841;DHT22;37888;53.246;6.658;2023-11-18T15:40:15;5.40;99.90
51841;DHT22;37888;53.246;6.658;2023-11-18T15:42:45;5.50;99.90
51841;DHT22;37888;53.246;6.658;2023-11-18T15:45:23;5.40;99.90
51841;DHT22;37888;53.246;6.658;2023-11-18T15:47:49;5.40;99.90
51841;DHT22;37888;53.246;6.658;2023-11-18T15:50:16;5.50;99.90
51841;DHT22;37888;53.246;6.658;2023-11-18T15:52:42;5.50;99.90
51841;DHT22;37888;53.246;6.658;2023-11-18T15:55:11;5.40;99.90
51841;DHT22;37888;53.246;6.658;2023-11-18T15:57:44;5.50;99.90
51841;DHT22;37888;53.246;6.658;2023-11-18T16:00:13;5.50;99.90
51841;DHT22;37888;53.246;6.658;2023-11-18T16:02:42;5.50;99.90
51841;DHT22;37888;53.246;6.658;2023-11-18T16:05:13;5.50;99.90
51841;DHT22;37888;53.246;6.658;2023-11-18T16:07:41;5.60;99.90
51841;DHT22;37888;53.246;6.658;2023-11-18T16:10:13;5.50;99.90
51841;DHT22;37888;53.246;6.658;2023-11-18T16:12:47;5.50;99.90
51841;DHT22;37888;53.246;6.658;2023-11-18T16:15:12;5.60;99.90
51841;DHT22;37888;53.246;6.658;2023-11-18T16:17:39;5.60;99.90
51841;DHT22;37888;53.246;6.658;2023-11-18T16:20:06;5.60;99.90
51841;DHT22;37888;53.246;6.658;2023-11-18T16:22:32;5.60;99.90
51841;DHT22;37888;53.246;6.658;2023-11-18T16:24:58;5.60;99.90
51841;DHT22;37888;53.246;6.658;2023-11-18T16:27:24;5.60;99.90
51841;DHT22;37888;53.246;6.658;2023-11-18T16:29:50;5.60;99.90
51841;DHT22;37888;53.246;6.658;2023-11-18T16:32:15;5.60;99.90
51841;DHT22;37888;53.246;6.658;2023-11-18T16:34:41;5.70;99.90
51841;DHT22;37888;53.246;6.658;2023-11-18T16:37:07;5.70;99.90
51841;DHT22;37888;53.246;6.658;2023-11-18T16:39:35;5.70;99.90
51841;DHT22;37888;53.246;6.658;2023-11-18T16:42:01;5.80;99.90
51841;DHT22;37888;53.246;6.658;2023-11-18T16:44:27;5.70;99.90
51841;DHT22;37888;53.246;6.658;2023-11-18T16:46:52;5.80;99.90
51841;DHT22;37888;53.246;6.658;2023-11-18T16:49:18;5.80;99.90
51841;DHT22;37888;53.246;6.658;2023-11-18T16:51:44;5.80;99.90
51841;DHT22;37888;53.246;6.658;2023-11-18T16:54:10;5.80;99.90
51841;DHT22;37888;53.246;6.658;2023-11-18T16:56:35;5.70;99.90
51841;DHT22;37888;53.246;6.658;2023-11-18T16:59:01;5.80;99.90
51841;DHT22;37888;53.246;6.658;2023-11-18T17:01:28;5.80;99.90
51841;DHT22;37888;53.246;6.658;2023-11-18T17:03:54;6.40;99.90
51841;DHT22;37888;53.246;6.658;2023-11-18T17:06:19;5.80;99.90
51841;DHT22;37888;53.246;6.658;2023-11-18T17:08:49;5.90;99.90
51841;DHT22;37888;53.246;6.658;2023-11-18T17:11:15;5.90;99.90
51841;DHT22;37888;53.246;6.658;2023-11-18T17:13:40;5.90;99.90
51841;DHT22;37888;53.246;6.658;2023-11-18T17:16:09;5.90;99.90
51841;DHT22;37888;53.246;6.658;2023-11-18T17:18:35;6.40;99.90
51841;DHT22;37888;53.246;6.658;2023-11-18T17:21:01;5.90;99.90
51841;DHT22;37888;53.246;6.658;2023-11-18T17:23:26;5.90;99.90
51841;DHT22;37888;53.246;6.658;2023-11-18T17:25:52;6.00;99.90
51841;DHT22;37888;53.246;6.658;2023-11-18T17:28:20;6.00;99.90
51841;DHT22;37888;53.246;6.658;2023-11-18T17:30:46;5.90;99.90
51841;DHT22;37888;53.246;6.658;2023-11-18T17:33:12;5.90;99.90